Time;durP1;ratioP1;P1;durP2;ratioP2;P2;SDS_P1;SDS_P2;PMS_P1;PMS_P2;Temp;Humidity;BMP_temperature;BMP_pressure;BME280_temperature;BME280_humidity;BME280_pressure;Samples;Min_cycle;Max_cycle;Signal;HPM_P1;HPM_P2
2022/05/28 00:01:29;;;;;;;2.60;0.68;;;10.90;99.90;;;;;;5075348;28;20088;-73
2022/05/28 00:03:57;;;;;;;2.05;0.57;;;10.90;99.90;;;;;;5075369;28;20039;-73
2022/05/28 00:06:24;;;;;;;6.70;0.80;;;10.80;99.90;;;;;;5026758;28;20036;-73
2022/05/28 00:08:50;;;;;;;0.20;0.20;;;10.80;99.90;;;;;;5075443;28;20040;-73
2022/05/28 00:11:22;;;;;;;1.10;0.52;;;10.80;99.90;;;;;;5075376;28;20046;-73
2022/05/28 00:13:49;;;;;;;1.40;0.40;;;10.90;99.90;;;;;;5058801;28;20044;-73
2022/05/28 00:16:16;;;;;;;2.22;0.30;;;10.70;99.90;;;;;;5058893;28;20044;-73
2022/05/28 00:18:42;;;;;;;2.88;0.60;;;10.70;99.90;;;;;;5075444;28;20039;-73
2022/05/28 00:21:09;;;;;;;2.63;0.50;;;10.60;99.90;;;;;;5075229;28;20036;-73
2022/05/28 00:23:36;;;;;;;3.40;0.95;;;10.60;99.90;;;;;;5058612;28;20127;-73
2022/05/28 00:26:06;;;;;;;2.33;0.80;;;10.60;99.90;;;;;;5074991;28;20046;-73
2022/05/28 00:28:32;;;;;;;1.85;0.43;;;10.50;99.90;;;;;;5058188;28;20052;-72
2022/05/28 00:30:59;;;;;;;0.65;0.30;;;10.60;99.90;;;;;;5074963;28;20040;-73
2022/05/28 00:33:25;;;;;;;1.60;0.32;;;10.50;99.90;;;;;;5058192;28;20075;-73
2022/05/28 00:35:51;;;;;;;2.85;0.65;;;10.50;99.90;;;;;;5042085;28;20043;-73
2022/05/28 00:38:17;;;;;;;1.25;0.40;;;10.60;99.90;;;;;;5074947;28;20089;-73
2022/05/28 00:40:48;;;;;;;1.90;0.50;;;10.50;99.90;;;;;;5074838;28;20047;-73
2022/05/28 00:43:15;;;;;;;1.85;0.40;;;10.50;99.90;;;;;;5058481;28;20096;-73
2022/05/28 00:45:41;;;;;;;0.73;0.40;;;10.50;99.90;;;;;;5075074;28;20040;-73
2022/05/28 00:48:09;;;;;;;0.40;0.30;;;10.50;99.90;;;;;;5058340;28;20043;-72
2022/05/28 00:50:36;;;;;;;0.55;0.40;;;10.50;99.90;;;;;;5058475;28;20051;-73
2022/05/28 00:53:03;;;;;;;1.10;0.47;;;10.40;99.90;;;;;;5074808;28;20089;-73
2022/05/28 00:55:32;;;;;;;0.35;0.35;;;10.40;99.90;;;;;;5057942;28;20115;-73
2022/05/28 00:57:59;;;;;;;6.95;0.75;;;10.50;99.90;;;;;;5074965;28;20510;-73
2022/05/28 01:00:25;;;;;;;0.28;0.28;;;10.30;99.90;;;;;;5041605;28;20051;-72
2022/05/28 01:02:54;;;;;;;2.33;0.70;;;10.30;99.90;;;;;;5074807;28;20479;-72
2022/05/28 01:05:39;;;;;;;1.75;0.63;;;11.40;99.90;;;;;;5058186;28;20076;-72
2022/05/28 01:08:17;;;;;;;1.17;0.55;;;10.20;99.90;;;;;;5074682;28;20126;-72
2022/05/28 01:14:17;;;;;;;1.45;0.40;;;10.10;99.90;;;;;;4698695;26;20053;-74
2022/05/28 01:16:45;;;;;;;1.75;0.63;;;10.10;99.90;;;;;;5049022;28;20574;-73
2022/05/28 01:19:21;;;;;;;0.68;0.30;;;10.20;99.90;;;;;;5054603;28;20101;-74
2022/05/28 01:21:56;;;;;;;0.65;0.30;;;10.10;99.90;;;;;;5071454;28;20048;-74
2022/05/28 01:24:45;;;;;;;5.97;0.80;;;10.10;99.90;;;;;;5071732;28;20037;-73
2022/05/28 01:27:15;;;;;;;1.25;0.43;;;10.00;99.90;;;;;;5071432;28;20037;-74
2022/05/28 01:29:48;;;;;;;0.28;0.25;;;10.00;99.90;;;;;;5071336;28;20123;-74
2022/05/28 01:32:16;;;;;;;0.63;0.32;;;10.50;99.90;;;;;;5071351;28;20128;-73
2022/05/28 01:34:43;;;;;;;1.70;0.63;;;10.00;99.90;;;;;;5071321;28;20381;-73
2022/05/28 01:37:10;;;;;;;0.55;0.47;;;9.90;99.90;;;;;;5071163;28;20123;-74
2022/05/28 01:39:38;;;;;;;1.05;0.50;;;10.40;99.90;;;;;;5054415;28;20094;-73
2022/05/28 01:42:07;;;;;;;3.13;0.40;;;9.90;99.90;;;;;;5071130;28;20119;-74
2022/05/28 01:44:34;;;;;;;2.05;0.30;;;9.90;99.90;;;;;;5054546;28;20045;-73
2022/05/28 01:46:59;;;;;;;1.00;0.47;;;9.90;99.90;;;;;;5057582;28;20048;-74
2022/05/28 01:49:26;;;;;;;1.40;0.30;;;9.80;99.90;;;;;;5058312;28;20037;-74
2022/05/28 01:51:59;;;;;;;1.50;0.60;;;9.80;99.90;;;;;;5074930;28;20047;-74
2022/05/28 01:54:30;;;;;;;3.80;0.85;;;10.30;99.90;;;;;;5075318;28;20488;-74
2022/05/28 01:56:56;;;;;;;0.40;0.30;;;9.80;99.90;;;;;;5074934;28;20037;-73
2022/05/28 01:59:25;;;;;;;1.02;0.40;;;9.80;99.90;;;;;;5074830;28;20400;-74
2022/05/28 02:01:52;;;;;;;1.50;0.55;;;9.80;99.90;;;;;;5075073;28;20484;-74
2022/05/28 02:04:18;;;;;;;0.63;0.45;;;9.70;99.90;;;;;;5041601;28;20113;-74
2022/05/28 02:06:44;;;;;;;0.88;0.50;;;9.70;99.90;;;;;;5074873;28;20037;-74
2022/05/28 02:09:16;;;;;;;1.38;0.63;;;9.80;99.90;;;;;;5074577;28;20040;-74
2022/05/28 02:12:00;;;;;;;2.10;0.35;;;9.90;99.90;;;;;;5074356;28;20123;-74
2022/05/28 02:15:05;;;;;;;0.65;0.50;;;9.60;99.90;;;;;;5074660;28;20094;-74
2022/05/28 02:17:37;;;;;;;1.90;0.60;;;9.60;99.90;;;;;;5073858;28;20044;-74
2022/05/28 02:20:19;;;;;;;1.92;0.73;;;9.60;99.90;;;;;;5074540;28;20035;-74
2022/05/28 02:22:59;;;;;;;0.90;0.43;;;9.60;99.90;;;;;;5074322;28;20049;-73
2022/05/28 02:25:36;;;;;;;1.98;0.57;;;9.50;99.90;;;;;;5074434;28;20048;-74
2022/05/28 02:28:03;;;;;;;2.47;0.70;;;9.50;99.90;;;;;;5074444;28;20044;-74
2022/05/28 02:30:30;;;;;;;0.22;0.20;;;9.50;99.90;;;;;;5041144;28;20036;-74
2022/05/28 02:33:05;;;;;;;3.40;0.80;;;9.60;99.90;;;;;;5057522;28;20377;-74
2022/05/28 02:35:32;;;;;;;1.67;0.52;;;9.40;99.90;;;;;;5074159;28;20047;-74
2022/05/28 02:37:58;;;;;;;2.80;0.55;;;9.50;99.90;;;;;;5073985;28;20074;-74
2022/05/28 02:40:24;;;;;;;0.90;0.60;;;9.40;99.90;;;;;;5074085;28;20400;-74
2022/05/28 02:42:50;;;;;;;6.22;0.52;;;9.40;99.90;;;;;;5057420;28;20036;-74
2022/05/28 02:45:16;;;;;;;2.75;0.52;;;9.30;99.90;;;;;;5074071;28;20385;-74
2022/05/28 02:47:41;;;;;;;1.48;0.63;;;9.50;99.90;;;;;;5073951;28;20123;-74
2022/05/28 02:50:09;;;;;;;6.20;0.50;;;9.40;99.90;;;;;;5073726;28;20055;-75
2022/05/28 02:52:35;;;;;;;0.40;0.40;;;9.50;99.90;;;;;;5057110;28;20047;-75
2022/05/28 02:55:00;;;;;;;10.07;0.85;;;9.50;99.90;;;;;;5073680;28;20040;-73
2022/05/28 02:57:26;;;;;;;3.30;0.52;;;9.40;99.90;;;;;;5072608;28;20389;-74
2022/05/28 02:59:52;;;;;;;6.45;0.70;;;9.50;99.90;;;;;;5073759;28;20123;-74
2022/05/28 03:02:17;;;;;;;1.15;0.50;;;9.50;99.90;;;;;;5073873;28;20041;-74
2022/05/28 03:04:43;;;;;;;1.25;0.60;;;9.50;99.90;;;;;;5073578;28;20089;-75
2022/05/28 03:07:09;;;;;;;4.65;0.50;;;9.60;99.90;;;;;;5073508;28;20048;-75
2022/05/28 03:09:34;;;;;;;3.20;0.60;;;9.30;99.90;;;;;;5056683;28;20032;-75
2022/05/28 03:12:00;;;;;;;1.90;0.50;;;9.50;99.90;;;;;;5039883;28;20381;-75
2022/05/28 03:14:26;;;;;;;2.50;0.55;;;9.70;99.90;;;;;;5056832;28;20420;-77
2022/05/28 03:16:52;;;;;;;1.55;0.57;;;10.30;99.90;;;;;;5057232;28;20139;-76
2022/05/28 03:19:18;;;;;;;0.80;0.43;;;9.40;99.90;;;;;;5056535;28;20048;-77
2022/05/28 03:21:43;;;;;;;1.88;0.75;;;9.40;99.90;;;;;;5057074;28;20039;-77
2022/05/28 03:24:09;;;;;;;2.08;0.60;;;9.40;99.90;;;;;;5073632;28;20098;-76
2022/05/28 03:26:35;;;;;;;2.97;0.65;;;9.30;99.90;;;;;;5057117;28;20044;-77
2022/05/28 03:29:02;;;;;;;1.13;0.45;;;9.30;99.90;;;;;;5056644;28;20039;-79
2022/05/28 03:31:28;;;;;;;0.88;0.63;;;9.20;99.90;;;;;;5073283;28;20041;-78
2022/05/28 03:33:55;;;;;;;3.08;1.30;;;9.20;99.90;;;;;;5073106;28;20076;-77
2022/05/28 03:36:21;;;;;;;0.50;0.30;;;9.40;99.90;;;;;;5056709;28;20083;-77
2022/05/28 03:38:46;;;;;;;1.75;0.68;;;9.50;99.90;;;;;;5073430;28;20048;-79
2022/05/28 03:41:13;;;;;;;4.85;1.25;;;9.20;99.90;;;;;;5073118;28;20032;-79
2022/05/28 03:43:38;;;;;;;1.20;0.70;;;9.10;99.90;;;;;;5073381;28;20044;-80
2022/05/28 03:46:05;;;;;;;4.78;0.85;;;9.80;99.90;;;;;;5056556;28;20037;-79
2022/05/28 03:48:33;;;;;;;0.63;0.40;;;10.00;99.90;;;;;;5056134;28;20032;-78
2022/05/28 03:50:59;;;;;;;5.25;1.33;;;9.20;99.90;;;;;;5039596;28;20040;-78
2022/05/28 03:53:25;;;;;;;6.15;1.02;;;9.30;99.90;;;;;;5073072;28;20506;-78
2022/05/28 03:55:51;;;;;;;5.45;1.33;;;9.30;99.90;;;;;;5056366;28;20043;-78
2022/05/28 03:58:17;;;;;;;2.45;0.60;;;9.30;99.90;;;;;;5055855;28;20072;-78
2022/05/28 04:00:43;;;;;;;0.88;0.50;;;9.30;99.90;;;;;;5055734;28;20067;-80
2022/05/28 04:03:09;;;;;;;2.45;0.73;;;9.40;99.90;;;;;;5039347;28;20044;-78
2022/05/28 04:05:38;;;;;;;2.72;0.65;;;9.30;99.90;;;;;;5072575;28;20033;-78
2022/05/28 04:08:05;;;;;;;1.38;0.47;;;9.40;99.90;;;;;;5055575;28;20079;-79
2022/05/28 04:10:31;;;;;;;3.05;0.93;;;9.50;99.90;;;;;;5055498;28;20037;-79
2022/05/28 04:12:57;;;;;;;1.02;0.40;;;9.60;99.90;;;;;;5055721;28;20063;-78
2022/05/28 04:15:24;;;;;;;5.88;1.15;;;9.30;99.90;;;;;;5072341;28;20121;-79
2022/05/28 04:17:50;;;;;;;2.72;1.05;;;9.40;99.90;;;;;;5039449;28;20045;-78
2022/05/28 04:20:16;;;;;;;2.97;0.40;;;9.20;99.90;;;;;;5072140;28;20036;-78
2022/05/28 04:22:42;;;;;;;1.73;0.50;;;9.30;99.90;;;;;;5056116;28;20040;-79
2022/05/28 04:25:08;;;;;;;0.65;0.52;;;9.40;99.90;;;;;;5055554;28;20055;-78
2022/05/28 04:27:34;;;;;;;0.47;0.40;;;9.30;99.90;;;;;;5071992;28;20066;-78
2022/05/28 04:30:00;;;;;;;1.98;0.80;;;9.30;99.90;;;;;;5071919;28;20067;-78
2022/05/28 04:32:26;;;;;;;4.60;0.50;;;9.30;99.90;;;;;;5039041;28;20045;-79
2022/05/28 04:34:52;;;;;;;2.50;0.75;;;9.20;99.90;;;;;;5055413;28;20089;-78
2022/05/28 04:37:17;;;;;;;15.52;0.93;;;9.00;99.90;;;;;;5055750;28;20048;-78
2022/05/28 04:39:45;;;;;;;3.40;1.02;;;9.20;99.90;;;;;;5055559;28;20050;-78
2022/05/28 04:42:11;;;;;;;2.47;0.63;;;9.20;99.90;;;;;;5055996;28;20040;-79
2022/05/28 04:44:36;;;;;;;2.53;0.77;;;9.40;99.90;;;;;;5072158;28;20047;-79
2022/05/28 04:47:03;;;;;;;0.90;0.43;;;9.30;99.90;;;;;;5038878;28;20384;-79
2022/05/28 04:49:28;;;;;;;2.53;0.82;;;9.40;99.90;;;;;;5071990;28;20071;-78
2022/05/28 04:51:54;;;;;;;2.63;0.70;;;9.40;99.90;;;;;;5055581;28;20032;-79
2022/05/28 04:54:20;;;;;;;4.68;1.00;;;9.50;99.90;;;;;;5055872;28;20069;-79
2022/05/28 04:56:46;;;;;;;1.70;0.80;;;9.50;99.90;;;;;;5072168;28;20102;-79
2022/05/28 04:59:11;;;;;;;2.92;0.85;;;9.50;99.90;;;;;;5038844;28;20090;-79
2022/05/28 05:01:37;;;;;;;4.82;0.88;;;9.40;99.90;;;;;;5071916;28;20041;-79
2022/05/28 05:04:03;;;;;;;2.10;0.88;;;9.60;99.90;;;;;;5038837;28;20469;-80
2022/05/28 05:06:29;;;;;;;1.77;0.50;;;10.20;99.90;;;;;;5055280;28;20076;-80
2022/05/28 05:08:55;;;;;;;7.05;0.80;;;10.30;99.90;;;;;;5054994;28;20040;-78
2022/05/28 05:11:21;;;;;;;1.42;0.60;;;10.20;99.90;;;;;;5055187;28;20040;-79
2022/05/28 05:13:46;;;;;;;1.13;0.70;;;10.50;99.90;;;;;;5071376;28;20060;-80
2022/05/28 05:16:14;;;;;;;1.20;0.60;;;10.40;99.90;;;;;;5071724;28;20104;-79
2022/05/28 05:18:40;;;;;;;3.58;0.98;;;10.40;99.90;;;;;;5071619;28;20028;-81
2022/05/28 05:21:06;;;;;;;5.65;0.98;;;10.60;99.90;;;;;;5056406;28;20039;-79
2022/05/28 05:23:32;;;;;;;2.92;0.75;;;10.20;99.90;;;;;;5075400;28;20102;-79
2022/05/28 05:25:57;;;;;;;4.28;1.00;;;10.70;99.90;;;;;;5075460;28;20036;-78
2022/05/28 05:28:23;;;;;;;0.90;0.50;;;10.30;99.90;;;;;;5075419;28;20040;-79
2022/05/28 05:30:49;;;;;;;4.72;1.10;;;10.30;99.90;;;;;;5058768;28;20040;-79
2022/05/28 05:33:14;;;;;;;6.40;1.40;;;10.70;99.90;;;;;;5075380;28;20040;-77
2022/05/28 05:35:40;;;;;;;8.95;0.88;;;10.60;99.90;;;;;;5075805;28;20498;-79
2022/05/28 05:38:08;;;;;;;4.30;0.82;;;10.50;99.90;;;;;;5075953;28;20036;-79
2022/05/28 05:40:37;;;;;;;2.45;0.77;;;10.70;99.90;;;;;;5075262;28;20047;-80
2022/05/28 05:43:03;;;;;;;4.05;1.13;;;10.90;99.90;;;;;;5058763;28;20098;-78
2022/05/28 05:45:29;;;;;;;9.35;1.63;;;11.10;99.90;;;;;;5058587;28;20048;-79
2022/05/28 05:47:55;;;;;;;0.65;0.60;;;11.10;99.90;;;;;;5058732;28;20486;-80
2022/05/28 05:50:20;;;;;;;3.38;0.77;;;10.80;99.90;;;;;;5075783;28;20059;-80
2022/05/28 05:52:46;;;;;;;4.57;1.25;;;10.80;99.90;;;;;;5058545;28;20194;-78
2022/05/28 05:55:12;;;;;;;2.03;1.08;;;11.40;99.90;;;;;;5058483;28;20051;-78
2022/05/28 05:57:38;;;;;;;6.40;1.58;;;10.90;99.90;;;;;;5041700;28;20105;-78
2022/05/28 06:00:04;;;;;;;0.93;0.68;;;10.90;99.90;;;;;;5075130;28;20400;-78
2022/05/28 06:02:30;;;;;;;4.13;1.08;;;;;;;;;;5075238;28;20403;-78
2022/05/28 06:04:58;;;;;;;1.45;0.80;;;11.40;99.90;;;;;;5074946;28;20127;-77
2022/05/28 06:07:24;;;;;;;2.58;1.20;;;11.90;99.90;;;;;;5042323;28;20045;-76
2022/05/28 06:09:49;;;;;;;2.00;1.05;;;12.00;99.90;;;;;;5041550;28;20098;-77
2022/05/28 06:12:15;;;;;;;2.25;1.00;;;11.80;99.90;;;;;;5024986;28;20495;-77
2022/05/28 06:14:41;;;;;;;1.08;0.60;;;12.00;99.90;;;;;;5074857;28;20088;-78
2022/05/28 06:17:07;;;;;;;5.00;0.90;;;12.10;99.90;;;;;;5041498;28;20053;-76
2022/05/28 06:19:33;;;;;;;4.05;0.65;;;12.10;99.90;;;;;;5057867;28;20051;-76
2022/05/28 06:22:00;;;;;;;5.72;0.75;;;12.10;99.90;;;;;;5074824;28;20093;-76
2022/05/28 06:24:26;;;;;;;3.63;0.70;;;12.10;99.90;;;;;;5074623;28;20392;-78
2022/05/28 06:26:52;;;;;;;4.38;1.20;;;12.10;99.90;;;;;;5074611;28;20052;-76
2022/05/28 06:29:18;;;;;;;2.67;0.90;;;12.00;99.90;;;;;;5041461;28;20033;-77
2022/05/28 06:31:43;;;;;;;2.70;0.55;;;12.00;99.90;;;;;;5057421;28;20040;-76
2022/05/28 06:34:09;;;;;;;3.45;1.60;;;11.90;99.90;;;;;;5057510;28;20469;-76
2022/05/28 06:36:35;;;;;;;10.05;0.90;;;12.00;99.90;;;;;;5057784;28;20093;-76
2022/05/28 06:39:00;;;;;;;2.10;0.50;;;12.00;99.90;;;;;;5074131;28;20135;-78
2022/05/28 06:41:26;;;;;;;4.07;0.80;;;12.00;99.90;;;;;;5074095;28;20090;-77
2022/05/28 06:43:52;;;;;;;1.88;0.70;;;;;;;;;;5057396;28;20045;-76
2022/05/28 06:46:18;;;;;;;3.53;0.90;;;12.40;99.90;;;;;;5074068;28;20048;-76
2022/05/28 06:48:44;;;;;;;2.47;0.98;;;12.50;99.90;;;;;;5074231;28;20404;-77
2022/05/28 06:51:10;;;;;;;4.55;0.60;;;12.60;99.90;;;;;;5057584;28;20037;-78
2022/05/28 06:53:48;;;;;;;1.08;0.68;;;12.20;99.90;;;;;;5057532;28;20127;-77
2022/05/28 06:56:16;;;;;;;5.68;1.50;;;12.10;99.90;;;;;;5074199;28;20032;-80
2022/05/28 06:58:43;;;;;;;2.97;0.70;;;12.00;99.90;;;;;;5057037;28;20056;-74
2022/05/28 07:01:10;;;;;;;4.32;1.13;;;12.00;99.90;;;;;;5073550;28;20044;-77
2022/05/28 07:03:37;;;;;;;1.20;0.70;;;12.90;99.90;;;;;;5073596;28;20048;-76
2022/05/28 07:06:03;;;;;;;3.15;0.60;;;12.50;99.90;;;;;;5056883;28;20036;-78
2022/05/28 07:08:29;;;;;;;2.83;0.60;;;12.50;99.90;;;;;;5073717;28;20041;-79
2022/05/28 07:10:58;;;;;;;2.92;0.90;;;12.40;99.90;;;;;;5073503;28;20389;-78
2022/05/28 07:13:24;;;;;;;3.20;1.00;;;12.40;99.90;;;;;;5073509;28;20416;-77
2022/05/28 07:15:51;;;;;;;2.90;0.82;;;12.30;99.90;;;;;;5073346;28;20048;-77
2022/05/28 07:18:18;;;;;;;3.42;0.75;;;12.70;99.90;;;;;;5057026;28;20040;-76
2022/05/28 07:20:44;;;;;;;2.45;0.80;;;12.50;99.90;;;;;;5056696;28;20033;-78
2022/05/28 07:23:16;;;;;;;3.45;0.57;;;12.40;99.90;;;;;;5073584;28;20120;-74
2022/05/28 07:25:43;;;;;;;1.13;0.75;;;12.30;99.90;;;;;;5073395;28;20043;-76
2022/05/28 07:28:25;;;;;;;2.50;0.90;;;12.50;99.90;;;;;;5073164;28;20052;-76
2022/05/28 07:31:10;;;;;;;2.03;0.90;;;12.10;99.90;;;;;;5056829;28;20109;-76
2022/05/28 07:33:40;;;;;;;3.97;0.75;;;12.20;99.90;;;;;;5073404;28;20086;-77
2022/05/28 07:36:08;;;;;;;1.35;0.95;;;12.50;99.90;;;;;;5056572;28;20049;-77
2022/05/28 07:38:36;;;;;;;4.57;0.70;;;12.40;99.90;;;;;;5073203;28;20044;-76
2022/05/28 07:41:14;;;;;;;2.08;1.05;;;12.40;99.90;;;;;;5073068;28;20045;-76
2022/05/28 07:43:41;;;;;;;3.40;1.63;;;12.30;99.90;;;;;;5055950;28;20515;-77
2022/05/28 07:46:21;;;;;;;2.13;0.70;;;12.50;99.90;;;;;;5056435;28;20101;-76
2022/05/28 07:48:48;;;;;;;1.42;0.77;;;12.30;99.90;;;;;;5072641;28;20444;-77
2022/05/28 07:51:15;;;;;;;1.30;0.85;;;12.40;99.90;;;;;;5056056;28;20055;-74
2022/05/28 07:53:42;;;;;;;1.77;0.65;;;12.30;99.90;;;;;;5056450;28;20564;-75
2022/05/28 07:56:08;;;;;;;1.83;0.60;;;12.30;99.90;;;;;;5039784;28;20583;-76
2022/05/28 07:58:34;;;;;;;0.73;0.55;;;12.30;99.90;;;;;;5072803;28;20047;-79
2022/05/28 08:01:00;;;;;;;3.78;0.85;;;12.20;99.90;;;;;;5072648;28;20050;-76
2022/05/28 08:03:26;;;;;;;2.58;0.68;;;12.20;99.90;;;;;;5072482;28;20049;-77
2022/05/28 08:05:54;;;;;;;1.50;0.57;;;12.60;99.90;;;;;;5039195;28;20450;-77
2022/05/28 08:08:22;;;;;;;1.50;0.75;;;12.60;99.90;;;;;;5055659;28;20040;-79
2022/05/28 08:10:48;;;;;;;2.50;0.85;;;12.60;99.90;;;;;;5055901;28;20028;-78
2022/05/28 08:13:16;;;;;;;6.90;1.08;;;12.60;99.90;;;;;;5072227;28;20101;-78
2022/05/28 08:15:43;;;;;;;3.22;1.10;;;;;;;;;;5072346;28;20052;-79
2022/05/28 08:18:10;;;;;;;1.70;0.88;;;;;;;;;;5073205;28;20036;-77
2022/05/28 08:23:21;;;;;;;4.30;0.82;;;;;;;;;;5072244;28;20044;-76
2022/05/28 08:25:48;;;;;;;2.17;1.13;;;;;;;;;;5039323;28;20044;-76
2022/05/28 08:28:15;;;;;;;6.38;0.85;;;;;;;;;;5055845;28;20127;-77
2022/05/28 08:30:41;;;;;;;3.40;0.80;;;;;;;;;;5055461;28;20408;-79
2022/05/28 08:33:08;;;;;;;1.58;0.80;;;;;;;;;;5056246;28;20040;-76
2022/05/28 08:35:35;;;;;;;3.47;0.80;;;;;;;;;;5055819;28;20040;-76
2022/05/28 08:38:05;;;;;;;1.63;0.63;;;;;;;;;;5039185;28;20044;-77
2022/05/28 08:40:32;;;;;;;4.70;0.95;;;;;;;;;;5072128;28;20036;-75
2022/05/28 08:42:58;;;;;;;3.47;0.73;;;;;;;;;;5072317;28;20053;-74
2022/05/28 08:45:24;;;;;;;1.10;0.77;;;;;;;;;;5055332;28;20045;-74
2022/05/28 08:47:51;;;;;;;1.30;0.70;;;;;;;;;;5071815;28;20139;-74
2022/05/28 08:50:17;;;;;;;1.52;0.50;;;;;;;;;;5072052;28;20051;-75
2022/05/28 08:53:03;;;;;;;2.50;0.60;;;;;;;;;;5072368;28;20049;-74
2022/05/28 08:55:29;;;;;;;1.75;0.57;;;;;;;;;;5071853;28;20442;-73
2022/05/28 08:58:00;;;;;;;1.80;0.82;;;;;;;;;;5072112;28;20468;-73
2022/05/28 09:00:45;;;;;;;5.15;0.73;;;;;;;;;;5071721;28;20050;-74
2022/05/28 09:03:16;;;;;;;3.47;0.80;;;;;;;;;;5071921;28;20048;-73
2022/05/28 09:05:42;;;;;;;;;;;;;;;;;;5072343;28;20059;-74
2022/05/28 09:08:09;;;;;;;2.35;0.93;;;;;;;;;;5071904;28;19920;-74
2022/05/28 09:10:44;;;;;;;4.90;0.93;;;;;;;;;;5071848;28;20044;-74
2022/05/28 09:13:18;;;;;;;0.57;0.50;;;;;;;;;;5054547;28;20052;-75
2022/05/28 09:15:45;;;;;;;5.10;1.30;;;;;;;;;;5072120;28;20516;-76
2022/05/28 09:18:12;;;;;;;6.55;1.00;;;;;;;;;;5055130;28;20399;-74
2022/05/28 09:20:40;;;;;;;0.90;0.65;;;;;;;;;;5055078;28;20045;-75
2022/05/28 09:23:06;;;;;;;3.70;1.10;;;;;;;;;;5071570;28;20037;-75
2022/05/28 09:25:40;;;;;;;1.50;0.60;;;;;;;;;;5054784;28;20032;-73
2022/05/28 09:28:16;;;;;;;2.83;0.82;;;;;;;;;;5071851;28;20040;-75
2022/05/28 09:30:51;;;;;;;2.78;0.80;;;;;;;;;;5071471;28;20036;-74
2022/05/28 09:33:39;;;;;;;1.58;0.80;;;;;;;;;;5071427;28;20411;-76
2022/05/28 09:36:21;;;;;;;1.85;0.65;;;;;;;;;;5071354;28;20040;-75
2022/05/28 09:39:05;;;;;;;1.98;1.00;;;;;;;;;;5071310;28;20059;-75
2022/05/28 09:41:51;;;;;;;2.45;0.80;;;14.20;99.90;;;;;;5054571;28;20041;-76
2022/05/28 09:44:39;;;;;;;4.95;1.00;;;14.00;99.90;;;;;;5071520;28;20123;-75
2022/05/28 09:47:18;;;;;;;6.47;0.63;;;13.80;99.90;;;;;;5071425;28;20123;-75
2022/05/28 09:49:56;;;;;;;2.08;0.73;;;13.60;99.90;;;;;;5071219;28;20120;-75
2022/05/28 09:52:27;;;;;;;1.35;0.70;;;13.60;99.90;;;;;;5071405;28;20123;-73
2022/05/28 09:55:12;;;;;;;2.85;0.70;;;13.60;99.90;;;;;;5054691;28;20028;-74
2022/05/28 09:58:05;;;;;;;5.03;0.73;;;13.80;99.90;;;;;;5071321;28;20041;-81
2022/05/28 10:00:31;;;;;;;2.78;0.73;;;14.00;99.90;;;;;;5066961;28;20058;-74
2022/05/28 10:05:53;;;;;;;1.73;0.77;;;14.20;99.90;;;;;;5070889;28;20044;-74
2022/05/28 10:08:19;;;;;;;3.65;0.73;;;14.30;99.90;;;;;;5074130;28;20076;-74
2022/05/28 10:10:56;;;;;;;3.85;0.73;;;14.50;99.90;;;;;;5057884;28;20090;-75
2022/05/28 10:13:24;;;;;;;5.15;1.10;;;14.80;99.90;;;;;;5074246;28;20126;-75
2022/05/28 10:16:00;;;;;;;4.30;1.10;;;14.80;99.90;;;;;;5074323;28;20131;-74
2022/05/28 10:18:36;;;;;;;1.50;0.80;;;14.70;99.90;;;;;;5074394;28;20066;-74
2022/05/28 10:21:14;;;;;;;1.90;0.98;;;14.30;99.90;;;;;;5074223;28;20129;-74
2022/05/28 10:23:42;;;;;;;2.67;1.13;;;14.20;99.90;;;;;;5074644;28;20077;-74
2022/05/28 10:26:46;;;;;;;3.03;1.10;;;13.90;99.90;;;;;;5074468;28;20055;-74
2022/05/28 10:29:23;;;;;;;3.63;0.60;;;13.90;99.90;;;;;;4977967;28;20038;-75
2022/05/28 10:31:51;;;;;;;4.20;0.63;;;13.90;99.90;;;;;;5046897;28;20045;-75
2022/05/28 10:34:38;;;;;;;3.70;1.05;;;13.80;99.90;;;;;;5057796;28;20043;-74
2022/05/28 10:37:12;;;;;;;6.45;1.00;;;14.10;99.90;;;;;;5074392;28;20037;-74
2022/05/28 10:39:38;;;;;;;0.73;0.38;;;13.80;99.90;;;;;;5057253;28;20044;-72
2022/05/28 10:42:07;;;;;;;5.22;1.08;;;13.60;99.90;;;;;;5057215;28;20090;-73
2022/05/28 10:44:33;;;;;;;5.30;0.77;;;13.50;99.90;;;;;;5074189;28;20094;-75
2022/05/28 10:47:11;;;;;;;2.22;0.60;;;13.40;99.90;;;;;;5073890;28;20040;-74
2022/05/28 10:50:12;;;;;;;1.00;0.60;;;13.50;99.90;;;;;;5073809;28;20045;-72
2022/05/28 10:52:59;;;;;;;2.13;0.95;;;13.60;99.90;;;;;;5073692;28;20040;-73
2022/05/28 10:56:01;;;;;;;1.75;0.93;;;13.90;99.90;;;;;;5073669;28;20400;-75
2022/05/28 10:58:45;;;;;;;0.77;0.50;;;14.00;99.90;;;;;;5073910;28;20052;-75
2022/05/28 11:01:27;;;;;;;7.18;0.88;;;14.00;99.90;;;;;;5073537;28;20036;-74
2022/05/28 11:03:53;;;;;;;1.77;1.00;;;14.20;99.90;;;;;;5073569;28;20050;-74
2022/05/28 11:06:42;;;;;;;2.38;0.70;;;14.40;99.90;;;;;;5057240;28;20036;-75
2022/05/28 11:09:23;;;;;;;2.65;0.95;;;14.60;99.90;;;;;;5073589;28;20056;-75
2022/05/28 11:12:01;;;;;;;2.97;0.77;;;14.80;99.90;;;;;;5073356;28;20048;-73
2022/05/28 11:14:42;;;;;;;2.47;0.40;;;14.80;99.90;;;;;;5073383;28;20406;-74
2022/05/28 11:17:48;;;;;;;1.33;0.50;;;14.60;99.90;;;;;;5056706;28;20097;-75
2022/05/28 11:20:20;;;;;;;2.33;0.55;;;14.70;99.90;;;;;;5056151;28;20076;-75
2022/05/28 11:23:16;;;;;;;0.50;0.40;;;14.80;99.90;;;;;;5073527;28;20045;-73
2022/05/28 11:26:03;;;;;;;6.65;0.60;;;14.80;99.90;;;;;;5073367;28;20044;-73
2022/05/28 11:29:06;;;;;;;0.32;0.28;;;14.80;99.90;;;;;;5073023;28;20040;-73
2022/05/28 11:31:47;;;;;;;1.88;0.35;;;14.90;99.90;;;;;;5073178;28;20048;-72
2022/05/28 11:34:19;;;;;;;2.30;0.80;;;14.60;99.90;;;;;;5073205;28;20044;-73
2022/05/28 11:36:51;;;;;;;0.32;0.30;;;14.90;99.90;;;;;;5073321;28;20463;-72
2022/05/28 11:39:43;;;;;;;1.40;0.70;;;15.00;99.90;;;;;;5072893;28;20131;-73
2022/05/28 11:42:48;;;;;;;2.22;0.60;;;15.00;99.90;;;;;;5062003;28;20071;-73
2022/05/28 11:45:20;;;;;;;0.85;0.73;;;14.80;99.90;;;;;;5072284;28;20045;-73
2022/05/28 11:48:00;;;;;;;2.20;0.65;;;14.50;99.90;;;;;;5072717;28;20513;-73
2022/05/28 11:53:49;;;;;;;3.40;0.70;;;14.10;99.90;;;;;;5042270;28;20520;-73
2022/05/28 11:56:24;;;;;;;2.88;1.00;;;14.00;99.90;;;;;;5056152;28;20098;-73
2022/05/28 11:58:58;;;;;;;2.17;0.95;;;13.90;99.90;;;;;;5072698;28;20550;-73
2022/05/28 12:01:28;;;;;;;2.17;0.73;;;14.30;99.90;;;;;;5072425;28;20054;-73
2022/05/28 12:03:54;;;;;;;3.75;0.75;;;14.60;99.90;;;;;;5072386;28;20385;-73
2022/05/28 12:06:37;;;;;;;3.50;1.02;;;14.70;99.90;;;;;;5056161;28;20040;-73
2022/05/28 12:09:15;;;;;;;3.08;0.60;;;14.60;99.90;;;;;;5072608;28;20512;-74
2022/05/28 12:12:03;;;;;;;5.93;0.93;;;14.30;99.90;;;;;;5072428;28;20083;-74
2022/05/28 12:14:37;;;;;;;5.03;1.10;;;13.90;99.90;;;;;;5072199;28;20063;-75
2022/05/28 12:17:21;;;;;;;1.23;0.63;;;13.30;99.90;;;;;;5072105;28;20044;-75
2022/05/28 12:19:52;;;;;;;5.10;0.70;;;13.10;99.90;;;;;;5055392;28;20044;-73
2022/05/28 12:22:35;;;;;;;2.78;0.93;;;12.80;99.90;;;;;;5072115;28;20076;-74
2022/05/28 12:25:20;;;;;;;1.38;0.80;;;12.80;99.90;;;;;;5072388;28;20028;-74
2022/05/28 12:28:12;;;;;;;4.80;0.70;;;12.90;99.90;;;;;;5072157;28;20040;-74
2022/05/28 12:30:43;;;;;;;0.95;0.40;;;12.90;99.90;;;;;;5071755;28;20131;-73
2022/05/28 12:33:26;;;;;;;3.53;0.85;;;13.30;99.90;;;;;;5072277;28;20139;-74
2022/05/28 12:36:28;;;;;;;3.83;1.42;;;13.60;99.90;;;;;;5072307;28;20514;-74
2022/05/28 12:38:54;;;;;;;1.17;0.52;;;13.80;99.90;;;;;;5028014;28;20049;-74
2022/05/28 12:41:27;;;;;;;3.10;0.70;;;13.90;99.90;;;;;;5055227;28;20051;-74
2022/05/28 12:44:07;;;;;;;1.98;0.90;;;14.00;99.90;;;;;;5072217;28;20044;-74
2022/05/28 12:46:43;;;;;;;2.58;0.90;;;14.20;99.90;;;;;;5072126;28;20484;-74
2022/05/28 12:49:11;;;;;;;2.58;0.60;;;14.10;99.90;;;;;;5072097;28;20048;-74
2022/05/28 12:51:46;;;;;;;3.83;0.90;;;14.10;99.90;;;;;;5072313;28;20182;-74
2022/05/28 12:54:27;;;;;;;1.50;0.47;;;13.90;99.90;;;;;;5072014;28;20052;-75
2022/05/28 12:57:08;;;;;;;1.13;0.60;;;13.90;99.90;;;;;;5055381;28;20036;-74
2022/05/28 12:59:41;;;;;;;1.52;0.52;;;14.00;99.90;;;;;;5055082;28;20052;-74
2022/05/28 13:02:15;;;;;;;1.67;0.77;;;14.00;99.90;;;;;;5071871;28;20045;-74
2022/05/28 13:05:12;;;;;;;2.10;0.70;;;13.80;99.90;;;;;;5071936;28;20036;-74
2022/05/28 13:07:52;;;;;;;3.22;0.90;;;13.70;99.90;;;;;;5070771;28;20052;-74
2022/05/28 13:10:27;;;;;;;2.33;0.93;;;13.60;99.90;;;;;;5072160;28;20403;-74
2022/05/28 13:13:27;;;;;;;0.40;0.40;;;13.70;99.90;;;;;;5071669;28;20036;-74
2022/05/28 13:16:02;;;;;;;0.75;0.60;;;13.60;99.90;;;;;;5071823;28;20106;-74
2022/05/28 13:18:30;;;;;;;1.77;0.65;;;13.70;99.90;;;;;;5071728;28;20049;-74
2022/05/28 13:20:56;;;;;;;4.78;0.80;;;13.80;99.90;;;;;;5071854;28;20040;-74
2022/05/28 13:23:59;;;;;;;3.45;0.73;;;14.00;99.90;;;;;;5055146;28;20047;-74
2022/05/28 13:26:37;;;;;;;3.50;0.98;;;14.30;99.90;;;;;;5054840;28;20036;-74
2022/05/28 13:29:15;;;;;;;3.63;0.93;;;14.50;99.90;;;;;;5071745;28;20468;-74
2022/05/28 13:31:48;;;;;;;2.17;0.80;;;14.70;99.90;;;;;;5071476;28;20048;-74
2022/05/28 13:34:23;;;;;;;1.80;0.70;;;14.80;99.90;;;;;;5055018;28;20049;-74